Time;durP1;ratioP1;P1;durP2;ratioP2;P2;SDS_P1;SDS_P2;PMS_P1;PMS_P2;Temp;Humidity;BMP_temperature;BMP_pressure;BME280_temperature;BME280_humidity;BME280_pressure;Samples;Min_cycle;Max_cycle;Signal;HPM_P1;HPM_P2
2022/04/04 00:01:24;;;;;;;11.90;6.25;;;2.40;99.90;;;;;;5075688;28;20025;-85
2022/04/04 00:03:49;;;;;;;8.10;5.50;;;2.40;99.90;;;;;;5076585;28;20094;-84
2022/04/04 00:06:15;;;;;;;9.80;6.68;;;2.40;99.90;;;;;;5058775;28;20078;-84
2022/04/04 00:08:40;;;;;;;9.32;6.00;;;2.40;99.90;;;;;;5057870;28;20029;-84
2022/04/04 00:11:06;;;;;;;10.25;5.82;;;2.40;99.90;;;;;;5057902;28;20417;-82
2022/04/04 00:13:32;;;;;;;8.75;5.97;;;2.40;99.90;;;;;;5057995;28;20032;-85
2022/04/04 00:15:58;;;;;;;10.43;6.35;;;2.40;99.90;;;;;;5058580;28;20499;-86
2022/04/04 00:18:23;;;;;;;9.45;6.55;;;2.40;99.90;;;;;;5076530;28;20029;-83
2022/04/04 00:20:52;;;;;;;9.15;5.80;;;2.40;99.90;;;;;;5076236;28;20110;-87
2022/04/04 00:23:18;;;;;;;11.15;5.97;;;2.40;99.90;;;;;;5057856;28;20016;-84
2022/04/04 00:25:46;;;;;;;10.60;7.15;;;2.40;99.90;;;;;;5077192;28;20055;-85
2022/04/04 00:28:13;;;;;;;10.05;6.75;;;2.30;99.90;;;;;;5058678;28;20029;-86
2022/04/04 00:30:38;;;;;;;10.15;7.20;;;2.30;99.90;;;;;;5076369;28;20012;-84
2022/04/04 00:33:05;;;;;;;10.77;7.38;;;2.30;99.90;;;;;;5065537;28;20048;-85
2022/04/04 00:35:31;;;;;;;9.98;7.22;;;2.30;99.90;;;;;;5061741;28;20036;-85
2022/04/04 00:38:04;;;;;;;12.50;8.05;;;2.20;99.90;;;;;;5075739;28;20021;-86
2022/04/04 00:40:30;;;;;;;12.27;7.65;;;2.30;99.90;;;;;;5075835;28;20035;-86
2022/04/04 00:42:56;;;;;;;15.90;8.10;;;2.20;99.90;;;;;;5076795;28;20013;-83
2022/04/04 00:45:21;;;;;;;14.52;8.40;;;2.20;99.90;;;;;;5076255;28;20064;-85
2022/04/04 00:47:47;;;;;;;15.13;8.85;;;2.20;99.90;;;;;;5077416;28;20029;-87
2022/04/04 00:50:13;;;;;;;13.30;8.85;;;2.30;99.90;;;;;;5059281;28;20469;-86
2022/04/04 00:52:39;;;;;;;15.00;8.63;;;2.30;99.90;;;;;;5079340;28;20036;-86
2022/04/04 00:55:09;;;;;;;13.70;8.32;;;2.30;99.90;;;;;;5062529;28;20035;-86
2022/04/04 00:57:36;;;;;;;12.88;9.27;;;2.30;99.90;;;;;;5058580;28;20497;-86
2022/04/04 01:00:04;;;;;;;12.65;9.25;;;2.20;99.90;;;;;;5076833;28;20020;-84
2022/04/04 01:02:29;;;;;;;14.10;8.82;;;2.20;99.90;;;;;;5058639;28;20046;-85
2022/04/04 01:04:55;;;;;;;17.65;9.20;;;2.20;99.90;;;;;;5058503;28;20064;-86
2022/04/04 01:07:21;;;;;;;16.73;9.18;;;2.20;99.90;;;;;;5077881;28;20039;-85
2022/04/04 01:09:47;;;;;;;12.23;8.88;;;2.20;99.90;;;;;;5060324;28;20028;-85
2022/04/04 01:12:14;;;;;;;14.35;8.95;;;2.30;99.90;;;;;;5059636;28;20031;-84
2022/04/04 01:14:47;;;;;;;12.23;9.43;;;2.30;99.90;;;;;;5058942;28;20506;-84
2022/04/04 01:17:14;;;;;;;14.32;9.20;;;2.40;99.90;;;;;;5076828;28;20031;-84
2022/04/04 01:19:40;;;;;;;11.38;8.88;;;2.40;99.90;;;;;;5058206;28;20119;-85
2022/04/04 01:22:09;;;;;;;15.20;9.57;;;2.40;99.90;;;;;;5076453;28;20064;-85
2022/04/04 01:24:37;;;;;;;15.88;9.18;;;2.40;99.90;;;;;;5079314;28;20029;-85
2022/04/04 01:27:03;;;;;;;13.82;9.30;;;2.30;99.90;;;;;;5090306;28;20032;-81
2022/04/04 01:29:29;;;;;;;12.23;8.63;;;2.30;99.90;;;;;;5086467;28;20062;-84
2022/04/04 01:31:54;;;;;;;14.98;9.48;;;2.20;99.90;;;;;;5057407;28;20090;-84
2022/04/04 01:34:22;;;;;;;14.30;10.05;;;2.20;99.90;;;;;;5057832;28;20028;-84
2022/04/04 01:36:48;;;;;;;15.10;9.13;;;2.30;99.90;;;;;;5058194;28;20089;-85
2022/04/04 01:39:14;;;;;;;11.75;8.60;;;2.20;99.90;;;;;;5081895;22;20032;-79
2022/04/04 01:41:39;;;;;;;11.88;8.90;;;2.30;99.90;;;;;;5050550;28;20082;-81
2022/04/04 01:44:05;;;;;;;14.85;9.38;;;2.20;99.90;;;;;;5038366;28;20021;-81
2022/04/04 01:46:31;;;;;;;14.88;9.73;;;2.20;99.90;;;;;;5054584;28;20028;-80
2022/04/04 01:48:58;;;;;;;15.57;10.48;;;2.20;99.90;;;;;;5054708;28;20028;-80
2022/04/04 01:51:25;;;;;;;13.55;10.27;;;2.20;99.90;;;;;;5054012;28;20028;-80
2022/04/04 01:53:51;;;;;;;14.55;10.00;;;2.20;99.90;;;;;;5054986;28;20024;-82
2022/04/04 01:56:17;;;;;;;14.90;10.18;;;2.20;99.90;;;;;;5054858;28;20103;-81
2022/04/04 01:58:43;;;;;;;18.30;10.88;;;2.20;99.90;;;;;;5054673;28;20082;-81
2022/04/04 02:01:15;;;;;;;14.75;10.13;;;2.20;99.90;;;;;;5057124;28;20028;-81
2022/04/04 02:03:42;;;;;;;18.35;10.82;;;2.20;99.90;;;;;;5057681;28;20031;-80
2022/04/04 02:06:08;;;;;;;12.23;8.93;;;2.20;99.90;;;;;;5054828;28;20123;-81
2022/04/04 02:08:34;;;;;;;13.65;9.73;;;2.20;99.90;;;;;;5056092;28;20068;-79
2022/04/04 02:11:02;;;;;;;13.27;9.43;;;2.20;99.90;;;;;;5077762;28;20465;-80
2022/04/04 02:13:29;;;;;;;15.07;9.35;;;2.10;99.90;;;;;;5059574;28;20032;-80
2022/04/04 02:15:57;;;;;;;16.42;9.55;;;2.10;99.90;;;;;;5061908;28;20027;-81
2022/04/04 02:18:23;;;;;;;14.05;10.02;;;2.20;99.90;;;;;;5061520;28;20033;-80
2022/04/04 02:20:49;;;;;;;13.77;9.38;;;2.20;99.90;;;;;;5063644;28;20028;-80
2022/04/04 02:23:18;;;;;;;15.30;9.68;;;2.20;99.90;;;;;;5065409;28;20031;-78
2022/04/04 02:25:45;;;;;;;13.90;9.65;;;2.20;99.90;;;;;;5061144;28;20033;-82
2022/04/04 02:28:11;;;;;;;12.23;9.18;;;2.20;99.90;;;;;;5059539;28;20062;-80
2022/04/04 02:30:38;;;;;;;15.00;9.60;;;2.20;99.90;;;;;;5058718;28;20033;-79
2022/04/04 02:33:04;;;;;;;13.32;8.98;;;2.10;99.90;;;;;;5059457;28;20048;-81
2022/04/04 02:35:33;;;;;;;13.52;9.13;;;2.20;99.90;;;;;;5058827;28;20074;-79
2022/04/04 02:38:00;;;;;;;14.52;10.00;;;2.20;99.90;;;;;;5060173;28;20044;-81
2022/04/04 02:40:26;;;;;;;15.98;9.30;;;2.20;99.90;;;;;;5059275;28;20042;-80
2022/04/04 02:42:52;;;;;;;16.85;9.38;;;2.20;99.90;;;;;;5060790;28;20107;-80
2022/04/04 02:45:19;;;;;;;17.60;9.93;;;2.20;99.90;;;;;;5065618;28;20468;-80
2022/04/04 02:47:45;;;;;;;15.20;9.02;;;2.20;99.90;;;;;;5042008;28;20451;-81
2022/04/04 02:50:11;;;;;;;13.38;9.02;;;2.20;99.90;;;;;;5042677;28;20021;-81
2022/04/04 02:52:37;;;;;;;16.77;9.57;;;2.20;99.90;;;;;;5058974;28;20449;-80
2022/04/04 02:57:50;;;;;;;12.52;8.60;;;2.20;99.90;;;;;;5058461;28;20079;-82
2022/04/04 03:00:19;;;;;;;16.02;9.02;;;2.30;99.90;;;;;;5038885;28;20388;-80
2022/04/04 03:02:48;;;;;;;12.57;8.07;;;2.30;99.90;;;;;;5038809;28;20420;-82
2022/04/04 03:05:14;;;;;;;12.57;8.00;;;2.40;99.90;;;;;;5056228;28;20365;-82
2022/04/04 03:07:42;;;;;;;13.30;8.63;;;2.40;99.90;;;;;;5042651;28;20037;-81
2022/04/04 03:10:09;;;;;;;13.32;8.45;;;2.40;99.90;;;;;;5056205;28;20013;-79
2022/04/04 03:12:41;;;;;;;13.40;8.13;;;2.40;99.90;;;;;;5043978;28;20032;-82
2022/04/04 03:15:11;;;;;;;14.88;7.88;;;2.40;99.90;;;;;;5040638;28;20047;-82
2022/04/04 03:17:41;;;;;;;16.73;8.40;;;2.40;99.90;;;;;;5039289;28;20036;-82
2022/04/04 03:20:09;;;;;;;13.82;8.80;;;2.50;99.90;;;;;;5037471;28;20058;-80
2022/04/04 03:22:37;;;;;;;14.32;9.35;;;2.50;99.90;;;;;;5037956;28;20090;-79
2022/04/04 03:25:04;;;;;;;19.23;9.52;;;2.50;99.90;;;;;;5055684;28;20052;-81
2022/04/04 03:27:30;;;;;;;16.85;9.55;;;2.60;99.90;;;;;;5037072;28;20106;-80
2022/04/04 03:29:55;;;;;;;15.50;9.55;;;2.60;99.90;;;;;;5038022;28;20480;-81
2022/04/04 03:32:21;;;;;;;13.25;8.90;;;2.70;99.90;;;;;;5037595;28;20027;-81
2022/04/04 03:34:47;;;;;;;15.60;9.27;;;2.70;99.90;;;;;;5038022;28;20055;-80
2022/04/04 03:37:13;;;;;;;20.20;10.20;;;2.70;99.90;;;;;;5038258;28;20036;-81
2022/04/04 03:39:39;;;;;;;14.02;9.68;;;2.80;99.90;;;;;;5037347;28;20032;-82
2022/04/04 03:42:05;;;;;;;18.25;9.70;;;2.80;99.90;;;;;;5038171;28;20029;-80
2022/04/04 03:44:30;;;;;;;14.77;8.73;;;2.80;99.90;;;;;;5056717;28;20415;-81
2022/04/04 03:46:56;;;;;;;12.90;8.82;;;2.80;99.90;;;;;;5038725;28;20025;-81
2022/04/04 03:49:22;;;;;;;13.25;8.75;;;2.80;99.90;;;;;;5038136;28;20503;-79
2022/04/04 03:51:47;;;;;;;14.43;8.63;;;2.80;99.90;;;;;;5037951;28;20025;-81
2022/04/04 03:54:14;;;;;;;16.17;9.02;;;2.80;99.90;;;;;;5037459;28;20029;-80
2022/04/04 03:56:39;;;;;;;13.10;8.68;;;2.80;99.90;;;;;;5037937;28;20021;-79
2022/04/04 03:59:05;;;;;;;12.07;7.60;;;2.80;99.90;;;;;;5037277;28;20112;-81
2022/04/04 04:01:31;;;;;;;14.55;8.77;;;2.90;99.90;;;;;;5036798;28;20025;-81
2022/04/04 04:03:57;;;;;;;15.13;7.68;;;2.90;99.90;;;;;;5036601;28;20036;-80
2022/04/04 04:06:22;;;;;;;12.10;8.18;;;2.90;99.90;;;;;;5037514;28;20029;-81
2022/04/04 04:08:48;;;;;;;10.85;7.65;;;2.90;99.90;;;;;;5036903;28;20112;-81
2022/04/04 04:11:16;;;;;;;13.07;8.43;;;2.90;99.90;;;;;;5036627;28;20061;-80
2022/04/04 04:13:45;;;;;;;11.68;7.90;;;2.80;99.90;;;;;;5037062;28;20029;-80
2022/04/04 04:16:13;;;;;;;13.23;7.75;;;2.80;99.90;;;;;;5036412;28;20425;-80
2022/04/04 04:18:39;;;;;;;11.23;7.35;;;2.90;99.90;;;;;;5038499;28;20043;-83
2022/04/04 04:21:07;;;;;;;11.27;7.55;;;2.90;99.90;;;;;;5057436;28;20035;-81
2022/04/04 04:23:33;;;;;;;12.10;7.10;;;2.90;99.90;;;;;;5046580;28;20052;-79
2022/04/04 04:25:58;;;;;;;10.55;7.00;;;3.00;99.90;;;;;;5056068;28;20055;-80
2022/04/04 04:28:24;;;;;;;11.98;7.25;;;3.00;99.90;;;;;;5073897;28;20468;-78
2022/04/04 04:30:50;;;;;;;13.82;7.15;;;3.00;99.90;;;;;;5055582;28;20043;-80
2022/04/04 04:33:15;;;;;;;11.68;7.05;;;3.00;99.90;;;;;;5055617;28;20021;-81
2022/04/04 04:35:41;;;;;;;11.85;6.55;;;3.10;99.90;;;;;;5054580;28;20021;-81
2022/04/04 04:38:07;;;;;;;13.60;6.97;;;3.10;99.90;;;;;;5054896;28;20021;-80
2022/04/04 04:40:34;;;;;;;12.32;7.35;;;3.10;99.90;;;;;;5072095;28;20036;-76
2022/04/04 04:43:00;;;;;;;14.73;7.28;;;3.10;99.90;;;;;;5055173;28;20021;-81
2022/04/04 04:45:26;;;;;;;10.98;7.25;;;3.10;99.90;;;;;;5040655;28;20126;-83
2022/04/04 04:47:52;;;;;;;17.20;7.80;;;3.10;99.90;;;;;;5035125;28;20025;-80
2022/04/04 04:50:20;;;;;;;14.25;7.68;;;3.10;99.90;;;;;;5034996;28;20028;-82
2022/04/04 04:52:46;;;;;;;14.40;8.10;;;3.10;99.90;;;;;;5034878;28;20029;-81
2022/04/04 04:55:15;;;;;;;14.15;7.82;;;3.10;99.90;;;;;;5035468;28;20136;-81
2022/04/04 04:57:40;;;;;;;13.38;8.13;;;3.20;99.90;;;;;;5035614;28;20040;-80
2022/04/04 05:00:09;;;;;;;11.15;8.05;;;3.10;99.90;;;;;;5035205;28;20260;-81
2022/04/04 05:02:35;;;;;;;12.32;6.82;;;3.10;99.90;;;;;;5036383;28;20064;-80
2022/04/04 05:05:04;;;;;;;18.38;7.20;;;3.10;99.90;;;;;;5036323;28;20067;-82
2022/04/04 05:07:30;;;;;;;15.35;6.28;;;3.10;99.90;;;;;;5036563;28;20055;-79
2022/04/04 05:09:56;;;;;;;11.80;7.22;;;3.20;99.90;;;;;;5036444;28;20445;-81
2022/04/04 05:12:23;;;;;;;13.02;7.50;;;3.10;99.90;;;;;;5037725;28;20021;-84
2022/04/04 05:14:49;;;;;;;12.20;7.60;;;3.10;99.90;;;;;;5040978;28;20025;-84
2022/04/04 05:17:15;;;;;;;13.18;7.65;;;3.10;99.90;;;;;;5045373;28;20024;-82
2022/04/04 05:19:41;;;;;;;13.40;8.18;;;3.10;99.90;;;;;;5048186;28;20060;-81
2022/04/04 05:22:07;;;;;;;13.35;8.05;;;3.20;99.90;;;;;;5036768;28;20021;-80
2022/04/04 05:24:34;;;;;;;12.93;7.90;;;3.20;99.90;;;;;;5055349;28;20063;-80
2022/04/04 05:27:00;;;;;;;13.90;8.30;;;3.20;99.90;;;;;;5035997;28;20071;-82
2022/04/04 05:29:28;;;;;;;12.20;7.95;;;3.20;99.90;;;;;;5053978;28;20036;-80
2022/04/04 05:31:56;;;;;;;12.02;7.72;;;3.20;99.90;;;;;;5039467;28;20071;-81
2022/04/04 05:34:22;;;;;;;11.82;8.10;;;3.20;99.90;;;;;;5036879;28;20120;-81
2022/04/04 05:36:49;;;;;;;17.13;9.23;;;3.10;99.90;;;;;;5038316;28;20024;-82
2022/04/04 05:39:15;;;;;;;13.18;8.45;;;3.20;99.90;;;;;;5056677;28;20032;-81
2022/04/04 05:41:41;;;;;;;12.38;8.95;;;3.20;99.90;;;;;;5038304;28;20025;-81
2022/04/04 05:44:09;;;;;;;14.50;8.00;;;3.20;99.90;;;;;;5041156;28;20025;-82
2022/04/04 05:46:35;;;;;;;19.75;9.10;;;3.30;99.90;;;;;;5058608;28;20458;-80
2022/04/04 05:49:02;;;;;;;16.23;8.55;;;3.30;99.90;;;;;;5062717;28;20028;-83
2022/04/04 05:51:33;;;;;;;13.38;8.95;;;3.30;99.90;;;;;;5066807;28;20430;-81
2022/04/04 05:53:59;;;;;;;16.25;8.65;;;3.30;99.90;;;;;;5070161;28;20024;-85
2022/04/04 05:56:24;;;;;;;14.05;8.70;;;3.30;99.90;;;;;;5069871;28;20252;-80
2022/04/04 05:58:54;;;;;;;14.23;9.07;;;3.40;99.90;;;;;;5074245;28;20024;-83
2022/04/04 06:01:21;;;;;;;20.55;9.10;;;3.50;99.90;;;;;;5068382;28;20025;-82
2022/04/04 06:03:50;;;;;;;12.32;7.72;;;3.50;99.90;;;;;;5073479;28;20029;-82
2022/04/04 06:06:16;;;;;;;15.52;9.20;;;3.50;99.90;;;;;;5074957;28;20063;-83
2022/04/04 06:08:42;;;;;;;14.32;9.02;;;3.60;99.90;;;;;;5074766;28;20460;-81
2022/04/04 06:11:10;;;;;;;14.18;8.35;;;3.60;99.90;;;;;;5078427;28;20016;-82
2022/04/04 06:13:43;;;;;;;16.75;8.63;;;3.70;99.90;;;;;;5079334;28;20039;-82
2022/04/04 06:16:12;;;;;;;16.80;7.88;;;3.70;99.90;;;;;;5081532;28;20468;-83
2022/04/04 06:18:43;;;;;;;15.48;8.65;;;3.80;99.90;;;;;;5078107;28;20013;-81
2022/04/04 06:21:09;;;;;;;16.17;8.27;;;3.90;99.90;;;;;;5066952;28;20037;-80
2022/04/04 06:23:36;;;;;;;14.02;8.23;;;3.90;99.90;;;;;;5062394;28;20029;-80
2022/04/04 06:26:05;;;;;;;14.40;7.20;;;4.00;99.90;;;;;;5063402;28;20031;-81
2022/04/04 06:28:31;;;;;;;10.80;7.00;;;4.10;99.90;;;;;;5080343;28;20028;-81
2022/04/04 06:30:58;;;;;;;15.77;7.45;;;4.10;99.90;;;;;;5061908;28;20036;-80
2022/04/04 06:33:24;;;;;;;10.00;6.63;;;4.20;99.90;;;;;;5064545;28;20051;-82
2022/04/04 06:35:51;;;;;;;12.98;6.20;;;4.30;99.90;;;;;;5063512;28;20465;-81
2022/04/04 06:38:18;;;;;;;15.93;7.05;;;4.50;99.90;;;;;;5064743;28;20032;-82
2022/04/04 06:40:44;;;;;;;10.98;7.05;;;4.50;99.90;;;;;;5066361;28;20039;-81
2022/04/04 06:43:11;;;;;;;10.98;7.20;;;4.60;99.90;;;;;;5062853;28;20396;-81
2022/04/04 06:45:37;;;;;;;13.15;6.75;;;4.60;99.90;;;;;;5048255;28;20021;-82
2022/04/04 06:48:03;;;;;;;13.45;7.65;;;4.60;99.90;;;;;;5043744;28;20137;-81
2022/04/04 06:50:30;;;;;;;10.32;6.60;;;4.60;99.90;;;;;;5043777;28;20036;-81
2022/04/04 06:52:58;;;;;;;10.70;6.85;;;4.70;99.90;;;;;;5060909;28;20021;-82
2022/04/04 06:55:27;;;;;;;10.20;6.55;;;4.70;99.90;;;;;;5044796;28;20021;-81
2022/04/04 06:57:53;;;;;;;11.48;6.82;;;4.80;99.90;;;;;;5044703;28;20064;-80
2022/04/04 07:00:19;;;;;;;11.95;6.53;;;4.90;99.90;;;;;;5060624;28;20052;-80
2022/04/04 07:02:44;;;;;;;13.65;7.10;;;5.00;99.90;;;;;;5043079;28;20036;-81
2022/04/04 07:05:10;;;;;;;10.45;6.35;;;5.20;99.90;;;;;;5042818;28;20021;-81
2022/04/04 07:07:36;;;;;;;10.40;5.53;;;5.20;99.90;;;;;;5041953;28;20021;-83
2022/04/04 07:10:03;;;;;;;10.57;5.72;;;5.20;99.90;;;;;;5044857;28;20071;-81
2022/04/04 07:12:29;;;;;;;10.30;5.90;;;5.20;99.90;;;;;;5044308;28;20025;-82
2022/04/04 07:14:55;;;;;;;9.40;6.18;;;5.10;99.90;;;;;;5050633;28;20032;-80
2022/04/04 07:17:21;;;;;;;11.55;6.10;;;5.00;99.90;;;;;;5052193;28;20021;-84
2022/04/04 07:19:47;;;;;;;19.48;7.75;;;5.20;99.90;;;;;;5049584;28;20021;-81
2022/04/04 07:22:16;;;;;;;12.70;7.63;;;5.20;99.90;;;;;;5060424;28;20033;-81
2022/04/04 07:24:42;;;;;;;18.73;6.78;;;5.50;99.90;;;;;;5047857;28;20045;-81
2022/04/04 07:27:09;;;;;;;13.85;7.05;;;5.70;99.90;;;;;;5063128;28;20059;-81
2022/04/04 07:29:36;;;;;;;12.57;7.13;;;6.00;99.90;;;;;;5049095;28;20036;-81
2022/04/04 07:32:04;;;;;;;9.57;6.57;;;6.10;99.90;;;;;;5048179;28;20032;-82
2022/04/04 07:34:30;;;;;;;13.50;6.82;;;6.20;99.90;;;;;;5046544;28;20029;-85
2022/04/04 07:36:56;;;;;;;11.27;7.20;;;6.10;99.90;;;;;;5044547;28;20032;-81
2022/04/04 07:39:22;;;;;;;10.88;7.03;;;6.00;99.90;;;;;;5051970;28;20028;-82
2022/04/04 07:41:48;;;;;;;11.98;7.05;;;6.10;99.90;;;;;;5066502;22;20496;-78
2022/04/04 07:44:14;;;;;;;12.75;6.78;;;6.00;99.90;;;;;;5039033;28;20017;-79
2022/04/04 07:46:39;;;;;;;14.32;6.82;;;6.00;99.90;;;;;;5039445;28;20035;-78
2022/04/04 07:49:05;;;;;;;12.75;6.80;;;6.00;99.90;;;;;;5041678;28;20032;-79
2022/04/04 07:51:31;;;;;;;8.85;5.82;;;6.10;99.90;;;;;;5041461;28;20051;-80
2022/04/04 07:53:57;;;;;;;11.10;6.90;;;6.10;99.90;;;;;;5063521;22;20135;-77
2022/04/04 07:56:23;;;;;;;11.55;6.50;;;6.30;99.90;;;;;;5057919;28;20060;-78
2022/04/04 07:58:48;;;;;;;10.45;6.30;;;6.50;99.90;;;;;;5058295;28;20081;-77
2022/04/04 08:01:14;;;;;;;12.40;6.07;;;6.90;99.90;;;;;;5040297;28;20049;-78
2022/04/04 08:03:40;;;;;;;10.30;6.55;;;7.00;99.90;;;;;;5057525;28;20024;-79
2022/04/04 08:06:05;;;;;;;10.77;6.15;;;7.20;99.90;;;;;;5039576;28;20021;-76
2022/04/04 08:08:31;;;;;;;12.07;6.22;;;7.10;99.90;;;;;;5038697;28;20028;-78
2022/04/04 08:11:01;;;;;;;9.57;5.88;;;7.00;99.90;;;;;;5055948;28;20018;-77
2022/04/04 08:13:26;;;;;;;8.68;6.03;;;6.90;99.90;;;;;;5039310;28;20020;-76
2022/04/04 08:15:53;;;;;;;10.23;6.25;;;6.80;99.90;;;;;;5057275;28;20450;-77
2022/04/04 08:18:18;;;;;;;11.07;6.45;;;6.60;99.90;;;;;;5057179;28;20128;-78
2022/04/04 08:20:44;;;;;;;9.90;6.45;;;6.70;99.90;;;;;;5057215;28;20021;-79
2022/04/04 08:23:09;;;;;;;11.50;6.40;;;6.80;99.90;;;;;;5062533;28;20025;-77
2022/04/04 08:25:35;;;;;;;9.93;6.25;;;6.70;99.90;;;;;;5069725;28;20046;-77
2022/04/04 08:28:01;;;;;;;9.15;6.00;;;6.60;99.90;;;;;;5069334;28;20025;-77
2022/04/04 08:30:27;;;;;;;7.60;5.60;;;6.70;99.90;;;;;;5059907;28;20044;-76
2022/04/04 08:32:52;;;;;;;12.10;5.75;;;6.70;99.90;;;;;;5058718;28;20566;-77
2022/04/04 08:35:19;;;;;;;13.10;6.40;;;6.70;99.90;;;;;;5056442;28;20484;-78
2022/04/04 08:37:46;;;;;;;9.38;6.22;;;6.80;99.90;;;;;;5055661;28;20439;-78
2022/04/04 08:40:14;;;;;;;8.73;6.00;;;6.90;99.90;;;;;;5055677;28;20017;-77
2022/04/04 08:42:41;;;;;;;13.13;6.22;;;7.00;99.90;;;;;;5038921;28;20051;-78
2022/04/04 08:45:08;;;;;;;8.85;5.53;;;7.00;99.90;;;;;;5038173;28;20063;-77
2022/04/04 08:47:34;;;;;;;9.68;6.35;;;7.20;99.90;;;;;;5057270;28;20085;-78
2022/04/04 08:50:01;;;;;;;6.70;5.07;;;7.30;99.90;;;;;;5039063;28;20059;-77
2022/04/04 08:52:27;;;;;;;10.23;5.70;;;7.50;99.90;;;;;;5038740;28;20035;-76
2022/04/04 08:54:53;;;;;;;6.50;5.38;;;7.60;99.90;;;;;;5038525;28;20096;-76
2022/04/04 08:57:19;;;;;;;10.43;5.65;;;7.60;99.90;;;;;;5056592;28;20025;-77
2022/04/04 08:59:44;;;;;;;11.57;6.07;;;7.60;99.90;;;;;;5056119;28;20115;-77
2022/04/04 09:02:12;;;;;;;18.42;5.80;;;7.60;99.90;;;;;;5038687;28;20024;-76
2022/04/04 09:04:38;;;;;;;12.43;5.35;;;7.60;99.90;;;;;;5056659;28;20052;-77
2022/04/04 09:07:08;;;;;;;6.78;5.05;;;7.60;99.90;;;;;;5038349;28;20033;-78
2022/04/04 09:09:50;;;;;;;8.68;5.15;;;7.50;99.90;;;;;;5038854;28;20025;-76
2022/04/04 09:12:23;;;;;;;8.13;5.55;;;7.50;99.90;;;;;;5038312;28;20036;-77
2022/04/04 09:14:58;;;;;;;8.40;5.60;;;7.50;99.90;;;;;;5054932;28;20029;-79
2022/04/04 09:17:30;;;;;;;9.15;5.32;;;7.60;99.90;;;;;;5056028;28;20096;-79
2022/04/04 09:19:57;;;;;;;11.10;6.15;;;7.60;99.90;;;;;;5038278;28;20029;-78
2022/04/04 09:22:23;;;;;;;8.98;4.75;;;7.60;99.90;;;;;;5040322;28;20159;-78
2022/04/04 09:24:58;;;;;;;8.00;4.93;;;7.50;99.90;;;;;;5061457;28;20056;-76
2022/04/04 09:27:36;;;;;;;11.32;5.00;;;7.30;99.90;;;;;;5044825;28;20029;-78
2022/04/04 09:30:05;;;;;;;12.80;5.47;;;7.20;99.90;;;;;;5060869;28;20029;-77
2022/04/04 09:32:42;;;;;;;9.88;5.50;;;7.10;99.90;;;;;;5060267;28;20108;-77
2022/04/04 09:35:13;;;;;;;10.88;5.30;;;7.20;99.90;;;;;;5060239;28;20025;-81
2022/04/04 09:37:41;;;;;;;8.88;5.38;;;7.20;99.90;;;;;;5065139;28;20031;-76
2022/04/04 09:40:16;;;;;;;8.57;5.30;;;7.20;99.90;;;;;;5067407;28;20226;-76
2022/04/04 09:43:02;;;;;;;11.18;5.53;;;7.10;99.90;;;;;;5048306;28;20017;-79
2022/04/04 09:45:29;;;;;;;9.35;5.47;;;7.20;99.90;;;;;;5060939;28;20033;-76
2022/04/04 09:47:58;;;;;;;10.43;5.53;;;7.10;99.90;;;;;;5061414;28;20086;-77
2022/04/04 09:50:30;;;;;;;12.10;5.88;;;7.00;99.90;;;;;;5042007;28;20048;-78
2022/04/04 09:53:00;;;;;;;12.90;5.65;;;7.10;99.90;;;;;;5042126;28;20106;-78
2022/04/04 09:55:36;;;;;;;12.68;6.53;;;7.20;99.90;;;;;;5059063;28;20459;-77
2022/04/04 09:58:05;;;;;;;10.75;5.97;;;7.10;99.90;;;;;;5060140;28;20021;-77
2022/04/04 10:00:32;;;;;;;8.52;6.32;;;7.00;99.90;;;;;;5061006;28;20489;-77
2022/04/04 10:02:58;;;;;;;11.02;5.80;;;7.00;99.90;;;;;;5042976;28;20037;-77
2022/04/04 10:05:27;;;;;;;8.40;5.95;;;6.90;99.90;;;;;;5041942;28;20029;-78
2022/04/04 10:07:55;;;;;;;11.57;6.00;;;6.90;99.90;;;;;;5059106;28;20082;-78
2022/04/04 10:10:26;;;;;;;13.82;6.47;;;7.00;99.90;;;;;;5059699;28;20032;-79
2022/04/04 10:12:53;;;;;;;9.27;6.18;;;6.90;99.90;;;;;;5058643;28;20094;-78
2022/04/04 10:15:21;;;;;;;14.52;7.05;;;6.70;99.90;;;;;;5059883;28;20098;-79
2022/04/04 10:17:48;;;;;;;8.90;6.18;;;6.50;99.90;;;;;;5060924;28;20021;-75
2022/04/04 10:20:14;;;;;;;10.55;6.50;;;6.50;99.90;;;;;;5060132;28;20020;-79
2022/04/04 10:22:41;;;;;;;13.75;6.20;;;6.40;99.90;;;;;;5060632;28;20017;-78
2022/04/04 10:25:07;;;;;;;12.10;6.97;;;6.40;99.90;;;;;;5041427;28;20029;-77
2022/04/04 10:27:36;;;;;;;8.85;6.32;;;6.20;99.90;;;;;;5039851;28;20050;-80
2022/04/04 10:30:06;;;;;;;14.18;7.72;;;6.00;99.90;;;;;;5039719;28;20029;-79
2022/04/04 10:32:32;;;;;;;11.45;6.85;;;6.00;99.90;;;;;;5059387;28;20025;-76
2022/04/04 10:35:08;;;;;;;12.82;7.57;;;6.00;99.90;;;;;;5056557;28;20017;-77
2022/04/04 10:37:43;;;;;;;9.23;6.88;;;6.00;99.90;;;;;;5040791;28;20055;-78
2022/04/04 10:40:19;;;;;;;12.45;7.45;;;6.10;99.90;;;;;;5056759;28;20025;-77
2022/04/04 10:42:46;;;;;;;14.45;7.20;;;6.20;99.90;;;;;;5058001;28;20395;-76
2022/04/04 10:45:13;;;;;;;16.13;7.63;;;6.10;99.90;;;;;;5056970;28;20419;-78
2022/04/04 10:47:44;;;;;;;10.82;7.22;;;5.90;99.90;;;;;;5038510;28;20029;-78
2022/04/04 10:50:17;;;;;;;18.27;8.05;;;5.80;99.90;;;;;;5038522;28;20024;-77
2022/04/04 10:52:44;;;;;;;11.68;7.68;;;5.80;99.90;;;;;;5040746;28;20373;-79
2022/04/04 10:55:27;;;;;;;17.20;7.70;;;5.70;99.90;;;;;;5056831;28;20029;-78
2022/04/04 10:58:19;;;;;;;14.13;7.57;;;5.60;99.90;;;;;;5059095;28;20439;-78
2022/04/04 11:01:09;;;;;;;12.68;7.72;;;5.40;99.90;;;;;;5040704;28;20025;-79
2022/04/04 11:03:39;;;;;;;12.77;8.63;;;5.30;99.90;;;;;;5039456;28;20024;-78
2022/04/04 11:09:22;;;;;;;17.95;9.65;;;5.30;99.90;;;;;;5059799;28;20039;-76
2022/04/04 11:11:57;;;;;;;15.50;9.43;;;5.30;99.90;;;;;;5041436;28;20037;-78
2022/04/04 11:14:37;;;;;;;19.20;9.65;;;5.30;99.90;;;;;;5043030;28;20033;-79
2022/04/04 11:17:08;;;;;;;15.75;8.60;;;5.30;99.90;;;;;;5057035;28;20017;-80
2022/04/04 11:19:57;;;;;;;14.82;9.65;;;5.40;99.90;;;;;;5057981;28;20062;-80
2022/04/04 11:22:28;;;;;;;16.00;9.27;;;5.30;99.90;;;;;;5058104;28;20028;-80
2022/04/04 11:25:15;;;;;;;16.95;9.82;;;5.30;99.90;;;;;;5058091;28;20052;-82
2022/04/04 11:27:40;;;;;;;14.07;9.40;;;5.30;99.90;;;;;;5057074;28;20083;-78
2022/04/04 11:30:13;;;;;;;16.77;10.57;;;5.40;99.90;;;;;;5040498;28;20025;-79
2022/04/04 11:32:41;;;;;;;16.45;9.82;;;5.40;99.90;;;;;;5040140;28;20051;-79
2022/04/04 11:35:15;;;;;;;17.13;9.55;;;5.50;99.90;;;;;;5059041;28;20033;-78
2022/04/04 11:37:46;;;;;;;16.50;10.32;;;5.50;99.90;;;;;;5040094;28;20373;-82
2022/04/04 11:40:14;;;;;;;21.63;10.85;;;5.50;99.90;;;;;;5039865;28;20017;-83
2022/04/04 11:42:51;;;;;;;13.52;10.10;;;5.30;99.90;;;;;;5052997;28;20017;-82
2022/04/04 11:45:25;;;;;;;17.95;11.02;;;5.20;99.90;;;;;;5075471;28;20009;-79
2022/04/04 11:48:11;;;;;;;17.30;10.82;;;5.20;99.90;;;;;;5060191;28;20027;-77
2022/04/04 11:50:38;;;;;;;20.40;12.20;;;5.20;99.90;;;;;;5070986;28;20028;-78
2022/04/04 11:53:06;;;;;;;16.70;11.70;;;5.10;99.90;;;;;;5056002;28;20098;-77
2022/04/04 11:55:33;;;;;;;16.48;11.15;;;5.20;99.90;;;;;;5055414;28;20493;-79
2022/04/04 11:58:29;;;;;;;19.85;11.38;;;5.10;99.90;;;;;;5037379;28;20017;-80
2022/04/04 12:01:04;;;;;;;15.55;10.55;;;5.10;99.90;;;;;;5030033;28;20033;-80
2022/04/04 12:03:32;;;;;;;17.70;11.20;;;5.00;99.90;;;;;;5038027;28;20461;-78
2022/04/04 12:06:01;;;;;;;19.67;12.43;;;5.00;99.90;;;;;;5036771;28;20061;-80
2022/04/04 12:08:27;;;;;;;17.67;12.20;;;5.10;99.90;;;;;;5054708;28;20021;-78
2022/04/04 12:10:52;;;;;;;18.85;11.45;;;5.00;99.90;;;;;;5055025;28;20056;-78
2022/04/04 12:13:22;;;;;;;21.70;11.55;;;5.00;99.90;;;;;;5054241;28;20127;-79
2022/04/04 12:15:50;;;;;;;20.48;12.32;;;5.00;99.90;;;;;;5054056;28;20043;-83
2022/04/04 12:18:24;;;;;;;19.52;11.55;;;5.00;99.90;;;;;;5064998;28;20025;-80
2022/04/04 12:20:52;;;;;;;19.15;12.93;;;4.90;99.90;;;;;;5067641;28;20396;-77
2022/04/04 12:26:07;;;;;;;22.02;10.93;;;4.90;99.90;;;;;;5054412;28;20444;-78
2022/04/04 12:28:35;;;;;;;15.10;11.20;;;4.80;99.90;;;;;;5053535;28;20024;-79
2022/04/04 12:31:11;;;;;;;17.70;10.10;;;4.90;99.90;;;;;;5054417;28;20036;-80
2022/04/04 12:33:36;;;;;;;16.05;10.80;;;4.90;99.90;;;;;;5035548;28;20025;-79
2022/04/04 12:36:02;;;;;;;14.43;10.93;;;4.90;99.90;;;;;;5053976;28;20035;-77
2022/04/04 12:38:34;;;;;;;15.93;10.93;;;4.80;99.90;;;;;;5035968;28;20029;-79
2022/04/04 12:41:12;;;;;;;13.52;10.60;;;4.80;99.90;;;;;;5054306;28;20087;-79
2022/04/04 12:43:40;;;;;;;14.38;11.05;;;4.70;99.90;;;;;;5036144;28;20045;-79
2022/04/04 12:46:07;;;;;;;15.10;11.30;;;4.70;99.90;;;;;;5036532;28;20086;-79
2022/04/04 12:48:38;;;;;;;15.15;10.93;;;4.80;99.90;;;;;;5035342;28;20028;-79
2022/04/04 12:51:05;;;;;;;16.38;10.82;;;4.70;99.90;;;;;;5036177;28;20039;-79
2022/04/04 12:53:49;;;;;;;15.02;11.60;;;4.70;99.90;;;;;;5053027;28;20437;-77
2022/04/04 12:56:15;;;;;;;15.68;11.63;;;4.70;99.90;;;;;;5058083;28;20021;-78
2022/04/04 12:58:42;;;;;;;17.70;11.80;;;4.70;99.90;;;;;;5056765;28;20017;-80